Terminal Aerodrome Forecast
Issued by NWS

Home | Current Version | Previous Version | Graphics & Text | Print | Product List | Glossary On
Versions: 1 2 3 4 5 6 7 8 9 10 11 12 13 14
000
FTUS43 KABR 211729
TAFATY
TAF
KATY 211729Z 2118/2218 32019G27KT P6SM FEW150
     FM212300 32010KT P6SM SKC
     FM220100 31006KT P6SM FEW200
     FM220900 VRB04KT P6SM FEW250
     FM221600 18013KT P6SM BKN060=

USA.gov is the U.S. government's official web portal to all federal, state and local government web resources and services.